createdAt,value
2023-02-01T00:00:28.057Z,100782.03
2023-02-01T00:02:55.019Z,100782.81
2023-02-01T00:05:21.697Z,100787.31
2023-02-01T00:07:49.952Z,100795.44
2023-02-01T00:10:17.032Z,100796.34
2023-02-01T00:12:44.208Z,100792.81
2023-02-01T00:15:11.390Z,100787.78
2023-02-01T00:17:38.388Z,100786.81
2023-02-01T00:20:05.802Z,100799.25
2023-02-01T00:22:32.564Z,100795.75
2023-02-01T00:24:59.231Z,100799.81
2023-02-01T00:27:29.006Z,100794.44
2023-02-01T00:29:56.939Z,100804.94
2023-02-01T00:32:23.738Z,100791.75
2023-02-01T00:34:50.371Z,100771.53
2023-02-01T00:37:17.036Z,100779.22
2023-02-01T00:39:43.715Z,100785.81
2023-02-01T00:42:11.075Z,100777.88
2023-02-01T00:44:37.782Z,100790.03
2023-02-01T00:47:04.411Z,100783.91
2023-02-01T00:49:31.220Z,100782.53
2023-02-01T00:51:57.967Z,100795.44
2023-02-01T00:54:25.189Z,100803.31
2023-02-01T00:56:52.307Z,100809.75
2023-02-01T00:59:22.497Z,100810.72
2023-02-01T01:01:49.148Z,100807.78
2023-02-01T01:04:15.842Z,100800.84
2023-02-01T01:06:42.601Z,100798.63
2023-02-01T01:09:09.315Z,100808.91
2023-02-01T01:11:37.824Z,100803.56
2023-02-01T01:14:07.680Z,100786.84
2023-02-01T01:16:35.789Z,100798.28
2023-02-01T01:19:03.148Z,100794.59
2023-02-01T01:21:30.534Z,100787.50
2023-02-01T01:23:57.141Z,100795.38
2023-02-01T01:26:26.244Z,100784.81
2023-02-01T01:28:53.642Z,100784.00
2023-02-01T01:31:21.269Z,100796.19
2023-02-01T01:33:52.840Z,100782.16
2023-02-01T01:36:20.174Z,100776.03
2023-02-01T01:38:46.900Z,100775.09
2023-02-01T01:41:23.617Z,100775.97
2023-02-01T01:44:06.896Z,100767.09
2023-02-01T01:46:36.461Z,100769.03
2023-02-01T01:49:10.642Z,100762.72
2023-02-01T01:51:42.152Z,100763.69
2023-02-01T01:54:18.373Z,100757.53
2023-02-01T01:56:47.760Z,100770.53
2023-02-01T01:59:14.608Z,100769.72
2023-02-01T02:01:41.371Z,100774.94
2023-02-01T02:04:08.208Z,100764.63
2023-02-01T02:06:42.197Z,100771.44
2023-02-01T02:09:08.931Z,100776.03
2023-02-01T02:11:35.629Z,100783.00
2023-02-01T02:14:02.634Z,100774.00
2023-02-01T02:16:48.534Z,100770.81
2023-02-01T02:19:30.460Z,100794.44
2023-02-01T02:22:03.094Z,100784.81
2023-02-01T02:24:51.235Z,100770.53
2023-02-01T02:27:26.891Z,100764.34
2023-02-01T02:30:24.216Z,100767.00
2023-02-01T02:33:16.072Z,100759.97
2023-02-01T02:35:51.759Z,100769.59
2023-02-01T02:38:31.373Z,100763.38
2023-02-01T02:41:53.223Z,100774.94
2023-02-01T02:44:48.966Z,100762.66
2023-02-01T02:47:54.321Z,100757.59
2023-02-01T02:50:49.477Z,100773.25
2023-02-01T02:53:38.032Z,100754.53
2023-02-01T02:56:26.080Z,100752.81
2023-02-01T02:59:12.013Z,100749.13
2023-02-01T03:01:58.477Z,100756.59
2023-02-01T03:04:28.560Z,100752.72
2023-02-01T03:06:55.371Z,100748.28
2023-02-01T03:09:37.307Z,100736.03
2023-02-01T03:12:26.651Z,100747.50
2023-02-01T03:14:57.006Z,100736.78
2023-02-01T03:17:28.983Z,100733.13
2023-02-01T03:20:01.534Z,100734.00
2023-02-01T03:22:32.798Z,100715.66
2023-02-01T03:25:04.141Z,100714.72
2023-02-01T03:27:39.511Z,100720.88
2023-02-01T03:30:30.155Z,100706.19
2023-02-01T03:33:02.413Z,100700.09
2023-02-01T03:36:10.850Z,100700.63
2023-02-01T03:38:43.629Z,100701.66
2023-02-01T03:41:21.297Z,100699.00
2023-02-01T03:43:54.850Z,100697.13
2023-02-01T03:46:35.074Z,100703.28
2023-02-01T03:49:07.021Z,100701.41
2023-02-01T03:51:40.044Z,100697.72
2023-02-01T03:54:10.025Z,100702.16
2023-02-01T03:56:41.423Z,100705.75
2023-02-01T03:59:08.394Z,100700.44
2023-02-01T04:01:36.412Z,100698.44
2023-02-01T04:04:03.339Z,100690.47
2023-02-01T04:06:30.365Z,100692.44
2023-02-01T04:09:01.192Z,100687.06
2023-02-01T04:11:28.687Z,100691.31
2023-02-01T04:13:55.393Z,100687.78
2023-02-01T04:16:22.053Z,100680.63
2023-02-01T04:18:48.861Z,100692.06
2023-02-01T04:21:15.513Z,100692.97
2023-02-01T04:23:42.140Z,100681.94
2023-02-01T04:26:08.887Z,100689.44
2023-02-01T04:28:35.575Z,100683.13
2023-02-01T04:31:02.362Z,100691.09
2023-02-01T04:33:29.151Z,100682.16
2023-02-01T04:35:55.848Z,100683.88
2023-02-01T04:38:22.645Z,100684.72
2023-02-01T04:40:49.677Z,100683.75
2023-02-01T04:43:17.847Z,100679.75
2023-02-01T04:45:49.470Z,100685.66
2023-02-01T04:48:17.427Z,100676.16
2023-02-01T04:50:47.122Z,100670.75
2023-02-01T04:53:15.040Z,100671.34
2023-02-01T04:55:42.175Z,100670.44
2023-02-01T04:58:09.134Z,100674.84
2023-02-01T05:00:35.847Z,100660.91
2023-02-01T05:03:02.539Z,100664.31
2023-02-01T05:05:29.619Z,100663.34
2023-02-01T05:07:56.310Z,100662.69
2023-02-01T05:10:23.263Z,100661.56
2023-02-01T05:13:08.824Z,100651.06
2023-02-01T05:15:35.590Z,100655.59
2023-02-01T05:18:02.266Z,100645.84
2023-02-01T05:20:29.017Z,100649.22
2023-02-01T05:22:55.646Z,100647.47
2023-02-01T05:25:22.362Z,100647.41
2023-02-01T05:27:49.097Z,100642.88
2023-02-01T05:30:16.239Z,100637.69
2023-02-01T05:32:42.914Z,100646.59
2023-02-01T05:35:12.725Z,100641.44
2023-02-01T05:37:39.399Z,100639.31
2023-02-01T05:40:06.672Z,100640.34
2023-02-01T05:42:33.345Z,100627.38
2023-02-01T05:45:00.050Z,100629.16
2023-02-01T05:47:26.865Z,100630.97
2023-02-01T05:49:53.547Z,100619.66
2023-02-01T05:52:23.244Z,100627.22
2023-02-01T05:54:50.086Z,100620.53
2023-02-01T05:57:16.772Z,100611.47
2023-02-01T05:59:45.721Z,100621.13
2023-02-01T06:02:13.288Z,100613.88
2023-02-01T06:04:40.334Z,100614.97
2023-02-01T06:07:08.816Z,100605.25
2023-02-01T06:09:38.498Z,100602.56
2023-02-01T06:12:05.904Z,100608.63
2023-02-01T06:14:35.580Z,100602.50
2023-02-01T06:17:02.247Z,100599.19
2023-02-01T06:19:28.853Z,100595.41
2023-02-01T06:21:55.530Z,100598.13
2023-02-01T06:24:22.202Z,100598.06
2023-02-01T06:26:48.915Z,100602.63
2023-02-01T06:29:15.672Z,100593.59
2023-02-01T06:31:43.980Z,100589.97
2023-02-01T06:34:10.674Z,100596.34
2023-02-01T06:36:37.407Z,100590.88
2023-02-01T06:39:04.143Z,100594.06
2023-02-01T06:41:30.858Z,100587.03
2023-02-01T06:43:57.521Z,100592.94
2023-02-01T06:46:24.429Z,100595.50
2023-02-01T06:48:52.209Z,100579.63
2023-02-01T06:51:27.472Z,100566.28
2023-02-01T06:53:54.234Z,100564.69
2023-02-01T06:56:21.818Z,100560.53
2023-02-01T06:58:48.778Z,100568.69
2023-02-01T07:01:15.691Z,100574.75
2023-02-01T07:03:42.560Z,100564.78
2023-02-01T07:06:10.205Z,100574.31
2023-02-01T07:08:38.510Z,100561.06
2023-02-01T07:11:07.167Z,100558.09
2023-02-01T07:13:34.021Z,100566.66
2023-02-01T07:16:04.815Z,100552.34
2023-02-01T07:18:32.260Z,100545.91
2023-02-01T07:20:59.786Z,100552.31
2023-02-01T07:23:27.167Z,100546.91
2023-02-01T07:25:57.563Z,100532.34
2023-02-01T07:28:24.629Z,100526.97
2023-02-01T07:30:54.305Z,100526.25
2023-02-01T07:33:22.916Z,100525.00
2023-02-01T07:35:50.340Z,100532.59
2023-02-01T07:38:17.504Z,100532.56
2023-02-01T07:40:44.201Z,100537.97
2023-02-01T07:43:10.896Z,100539.19
2023-02-01T07:45:38.325Z,100535.72
2023-02-01T07:48:05.250Z,100538.69
2023-02-01T07:50:32.032Z,100545.84
2023-02-01T07:53:02.233Z,100541.38
2023-02-01T07:55:29.333Z,100530.19
2023-02-01T07:57:58.837Z,100524.41
2023-02-01T08:00:44.109Z,100525.16
2023-02-01T08:03:10.944Z,100519.16
2023-02-01T08:05:38.050Z,100524.38
2023-02-01T08:08:05.040Z,100519.09
2023-02-01T08:10:31.663Z,100516.56
2023-02-01T08:13:02.190Z,100522.59
2023-02-01T08:15:29.730Z,100522.66
2023-02-01T08:17:56.767Z,100520.34
2023-02-01T08:20:24.442Z,100506.06
2023-02-01T08:22:54.315Z,100510.31
2023-02-01T08:25:21.598Z,100514.63
2023-02-01T08:27:48.308Z,100515.59
2023-02-01T08:30:15.075Z,100520.00
2023-02-01T08:32:41.804Z,100519.94
2023-02-01T08:35:09.278Z,100527.94
2023-02-01T08:37:36.109Z,100525.25
2023-02-01T08:40:03.567Z,100519.22
2023-02-01T08:42:48.959Z,100535.88
2023-02-01T08:45:15.703Z,100525.31
2023-02-01T08:47:42.320Z,100530.78
2023-02-01T08:50:10.597Z,100531.13
2023-02-01T08:52:38.292Z,100543.09
2023-02-01T08:55:06.559Z,100548.78
2023-02-01T08:57:34.292Z,100566.41
2023-02-01T09:00:01.429Z,100557.63
2023-02-01T09:02:28.544Z,100567.28
2023-02-01T09:04:56.888Z,100569.88
2023-02-01T09:07:23.761Z,100561.34
2023-02-01T09:09:50.452Z,100556.72
2023-02-01T09:12:17.122Z,100558.31
2023-02-01T09:14:43.823Z,100562.66
2023-02-01T09:17:10.489Z,100570.59
2023-02-01T09:19:37.243Z,100583.13
2023-02-01T09:22:03.866Z,100589.31
2023-02-01T09:24:30.659Z,100599.53
2023-02-01T09:26:57.336Z,100589.94
2023-02-01T09:29:23.994Z,100589.53
2023-02-01T09:32:02.863Z,100588.00
2023-02-01T09:34:30.421Z,100598.81
2023-02-01T09:36:57.444Z,100601.25
2023-02-01T09:39:24.112Z,100604.09
2023-02-01T09:42:09.034Z,100597.84
2023-02-01T09:44:50.515Z,100609.72
2023-02-01T09:47:22.863Z,100601.91
2023-02-01T09:50:18.034Z,100620.94
2023-02-01T09:52:49.714Z,100617.88
2023-02-01T09:55:21.041Z,100622.44
2023-02-01T09:58:24.140Z,100615.00
2023-02-01T10:00:55.836Z,100631.06
2023-02-01T10:03:25.178Z,100628.31
2023-02-01T10:06:22.481Z,100631.91
2023-02-01T10:09:10.703Z,100631.72
2023-02-01T10:12:00.359Z,100631.69
2023-02-01T10:14:45.171Z,100641.44
2023-02-01T10:17:30.484Z,100641.34
2023-02-01T10:20:05.675Z,100636.84
2023-02-01T10:23:13.364Z,100643.78
2023-02-01T10:25:39.018Z,100637.63
2023-02-01T10:28:05.762Z,100637.03
2023-02-01T10:30:40.820Z,100635.81
2023-02-01T10:33:24.884Z,100635.84
2023-02-01T10:35:55.553Z,100634.78
2023-02-01T10:38:28.510Z,100634.56
2023-02-01T10:40:58.419Z,100634.47
2023-02-01T10:43:25.012Z,100635.63
2023-02-01T10:45:51.909Z,100632.97
2023-02-01T10:48:18.622Z,100619.78
2023-02-01T10:51:20.880Z,100622.09
2023-02-01T10:53:57.609Z,100617.69
2023-02-01T10:56:26.313Z,100629.50
2023-02-01T10:59:01.429Z,100618.41
2023-02-01T11:01:41.088Z,100628.31
2023-02-01T11:04:11.463Z,100624.38
2023-02-01T11:06:41.958Z,100619.97
2023-02-01T11:09:08.483Z,100615.91
2023-02-01T11:11:55.335Z,100614.81
2023-02-01T11:14:31.931Z,100621.25
2023-02-01T11:17:01.382Z,100614.94
2023-02-01T11:19:28.586Z,100627.59
2023-02-01T11:21:57.333Z,100612.09
2023-02-01T11:24:26.950Z,100597.91
2023-02-01T11:26:57.699Z,100598.16
2023-02-01T11:29:30.812Z,100592.59
2023-02-01T11:31:58.548Z,100574.97
2023-02-01T11:34:36.287Z,100573.59
2023-02-01T11:37:04.499Z,100574.66
2023-02-01T11:39:33.989Z,100573.00
2023-02-01T11:42:14.497Z,100575.91
2023-02-01T11:44:43.604Z,100565.66
2023-02-01T11:47:29.508Z,100568.28
2023-02-01T11:50:00.876Z,100566.06
2023-02-01T11:52:36.607Z,100562.28
2023-02-01T11:55:03.202Z,100556.50
2023-02-01T11:57:41.419Z,100552.72
2023-02-01T12:00:30.557Z,100556.03
2023-02-01T12:03:15.709Z,100549.09
2023-02-01T12:05:50.054Z,100544.78
2023-02-01T12:08:27.416Z,100545.69
2023-02-01T12:11:42.157Z,100544.97
2023-02-01T12:14:30.982Z,100534.03
2023-02-01T12:17:12.326Z,100541.94
2023-02-01T12:20:04.465Z,100526.84
2023-02-01T12:22:58.466Z,100531.03
2023-02-01T12:25:38.431Z,100520.19
2023-02-01T12:28:23.673Z,100523.38
2023-02-01T12:31:15.045Z,100514.75
2023-02-01T12:34:09.062Z,100495.78
2023-02-01T12:37:09.022Z,100498.00
2023-02-01T12:39:41.829Z,100499.19
2023-02-01T12:42:21.907Z,100493.19
2023-02-01T12:44:55.428Z,100489.50
2023-02-01T12:47:28.999Z,100486.66
2023-02-01T12:50:07.165Z,100493.47
2023-02-01T12:52:40.376Z,100484.25
2023-02-01T12:55:37.066Z,100486.69
2023-02-01T12:58:44.057Z,100472.59
2023-02-01T13:01:19.487Z,100485.06
2023-02-01T13:04:18.564Z,100480.59
2023-02-01T13:06:55.457Z,100500.47
2023-02-01T13:09:28.130Z,100491.06
2023-02-01T13:11:59.667Z,100491.34
2023-02-01T13:14:43.676Z,100492.34
2023-02-01T13:17:36.775Z,100493.88
2023-02-01T13:20:08.349Z,100488.88
2023-02-01T13:22:45.060Z,100495.59
2023-02-01T13:25:11.697Z,100492.03
2023-02-01T13:27:38.754Z,100486.63
2023-02-01T13:30:21.027Z,100482.13
2023-02-01T13:33:50.078Z,100489.63
2023-02-01T13:35:50.695Z,100469.13
2023-02-01T13:38:43.700Z,100475.91
2023-02-01T13:41:31.758Z,100457.13
2023-02-01T13:44:11.390Z,100453.06
2023-02-01T13:46:43.414Z,100459.66
2023-02-01T13:49:26.031Z,100435.66
2023-02-01T13:51:55.166Z,100443.84
2023-02-01T13:54:32.209Z,100443.16
2023-02-01T13:57:04.743Z,100430.13
2023-02-01T13:59:51.880Z,100445.00
2023-02-01T14:02:46.157Z,100429.66
2023-02-01T14:05:37.242Z,100431.94
2023-02-01T14:08:08.830Z,100427.72
2023-02-01T14:11:00.383Z,100422.63
2023-02-01T14:13:36.785Z,100421.06
2023-02-01T14:16:03.699Z,100413.81
2023-02-01T14:18:36.532Z,100418.94
2023-02-01T14:21:24.255Z,100400.88
2023-02-01T14:23:54.112Z,100407.66
2023-02-01T14:26:43.005Z,100397.09
2023-02-01T14:29:31.677Z,100383.75
2023-02-01T14:32:08.159Z,100387.50
2023-02-01T14:34:44.111Z,100377.25
2023-02-01T14:37:14.671Z,100376.22
2023-02-01T14:39:47.360Z,100370.44
2023-02-01T14:42:33.263Z,100368.38
2023-02-01T14:45:18.449Z,100368.53
2023-02-01T14:47:47.650Z,100364.50
2023-02-01T14:50:38.656Z,100365.38
2023-02-01T14:53:11.852Z,100354.88
2023-02-01T14:56:05.907Z,100380.41
2023-02-01T14:58:59.328Z,100375.06
2023-02-01T15:01:38.876Z,100378.66
2023-02-01T15:04:19.531Z,100380.91
2023-02-01T15:06:57.668Z,100380.19
2023-02-01T15:10:00.258Z,100374.09
2023-02-01T15:12:31.763Z,100366.38
2023-02-01T15:15:18.832Z,100364.38
2023-02-01T15:18:01.073Z,100370.50
2023-02-01T15:20:30.012Z,100367.16
2023-02-01T15:23:03.007Z,100351.00
2023-02-01T15:25:32.292Z,100357.69
2023-02-01T15:27:59.266Z,100358.50
2023-02-01T15:30:31.369Z,100358.19
2023-02-01T15:33:09.643Z,100340.19
2023-02-01T15:35:39.494Z,100346.78
2023-02-01T15:38:25.334Z,100347.63
2023-02-01T15:41:14.519Z,100350.00
2023-02-01T15:44:04.600Z,100352.34
2023-02-01T15:46:37.063Z,100345.91
2023-02-01T15:49:04.339Z,100347.16
2023-02-01T15:51:33.715Z,100347.97
2023-02-01T15:54:03.541Z,100350.78
2023-02-01T15:56:35.488Z,100356.69
2023-02-01T15:59:04.929Z,100370.81
2023-02-01T16:01:31.843Z,100389.03
2023-02-01T16:04:15.340Z,100398.13
2023-02-01T16:07:01.751Z,100413.59
2023-02-01T16:09:42.168Z,100417.09
2023-02-01T16:12:36.872Z,100411.88
2023-02-01T16:15:04.128Z,100423.81
2023-02-01T16:17:30.792Z,100427.78
2023-02-01T16:19:58.333Z,100446.66
2023-02-01T16:22:26.088Z,100420.88
2023-02-01T16:24:52.954Z,100421.13
2023-02-01T16:27:19.764Z,100421.03
2023-02-01T16:29:46.451Z,100427.75
2023-02-01T16:32:22.188Z,100434.66
2023-02-01T16:34:49.383Z,100438.44
2023-02-01T16:37:23.350Z,100439.38
2023-02-01T16:39:50.078Z,100447.28
2023-02-01T16:42:17.193Z,100453.03
2023-02-01T16:44:44.276Z,100450.56
2023-02-01T16:47:21.651Z,100458.03
2023-02-01T16:49:49.166Z,100465.94
2023-02-01T16:52:19.175Z,100465.69
2023-02-01T16:54:45.852Z,100461.88
2023-02-01T16:57:14.897Z,100467.91
2023-02-01T16:59:42.220Z,100469.38
2023-02-01T17:02:20.372Z,100467.34
2023-02-01T17:04:47.141Z,100474.06
2023-02-01T17:07:15.406Z,100474.81
2023-02-01T17:09:42.061Z,100472.09
2023-02-01T17:12:19.739Z,100478.56
2023-02-01T17:14:46.399Z,100488.03
2023-02-01T17:17:13.262Z,100473.88
2023-02-01T17:19:40.025Z,100472.44
2023-02-01T17:22:06.709Z,100474.78
2023-02-01T17:24:47.620Z,100461.31
2023-02-01T17:27:15.753Z,100477.63
2023-02-01T17:29:43.882Z,100468.94
2023-02-01T17:32:19.940Z,100476.81
2023-02-01T17:34:46.682Z,100489.03
2023-02-01T17:37:25.216Z,100480.59
2023-02-01T17:39:57.937Z,100491.66
2023-02-01T17:42:29.862Z,100483.00
2023-02-01T17:44:58.766Z,100482.53
2023-02-01T17:47:25.557Z,100481.03
2023-02-01T17:49:56.761Z,100489.88
2023-02-01T17:52:25.246Z,100488.00
2023-02-01T17:54:54.285Z,100499.50
2023-02-01T17:57:21.222Z,100507.06
2023-02-01T17:59:47.921Z,100496.25
2023-02-01T18:02:23.075Z,100501.22
2023-02-01T18:04:50.218Z,100509.59
2023-02-01T18:07:17.007Z,100504.63
2023-02-01T18:09:43.781Z,100510.50
2023-02-01T18:12:19.571Z,100510.44
2023-02-01T18:14:47.501Z,100505.09
2023-02-01T18:17:15.173Z,100515.69
2023-02-01T18:19:44.895Z,100509.44
2023-02-01T18:22:17.032Z,100507.75
2023-02-01T18:24:43.775Z,100509.56
2023-02-01T18:27:10.472Z,100513.31
2023-02-01T18:29:37.117Z,100520.91
2023-02-01T18:32:04.092Z,100520.34
2023-02-01T18:34:30.870Z,100518.56
2023-02-01T18:36:57.650Z,100520.59
2023-02-01T18:39:24.290Z,100506.50
2023-02-01T18:41:51.953Z,100511.97
2023-02-01T18:44:18.997Z,100497.91
2023-02-01T18:46:46.195Z,100508.38
2023-02-01T18:49:18.147Z,100505.94
2023-02-01T18:51:45.372Z,100514.53
2023-02-01T18:54:12.420Z,100507.28
2023-02-01T18:56:39.179Z,100501.97
2023-02-01T18:59:05.932Z,100517.09
2023-02-01T19:01:32.682Z,100517.16
2023-02-01T19:04:06.676Z,100532.66
2023-02-01T19:06:36.988Z,100531.47
2023-02-01T19:09:03.885Z,100528.78
2023-02-01T19:11:30.527Z,100530.28
2023-02-01T19:13:57.199Z,100531.97
2023-02-01T19:16:23.900Z,100541.88
2023-02-01T19:18:52.274Z,100535.47
2023-02-01T19:21:19.062Z,100533.75
2023-02-01T19:23:45.713Z,100541.56
2023-02-01T19:26:13.663Z,100540.13
2023-02-01T19:28:40.495Z,100537.47
2023-02-01T19:31:08.866Z,100541.97
2023-02-01T19:33:36.137Z,100544.50
2023-02-01T19:36:06.009Z,100543.00
2023-02-01T19:38:33.865Z,100544.50
2023-02-01T19:41:00.784Z,100546.13
2023-02-01T19:43:27.639Z,100531.94
2023-02-01T19:45:55.029Z,100545.69
2023-02-01T19:48:21.866Z,100547.25
2023-02-01T19:50:48.604Z,100542.81
2023-02-01T19:53:15.268Z,100533.88
2023-02-01T19:55:46.001Z,100554.03
2023-02-01T19:58:12.659Z,100565.50
2023-02-01T20:00:38.560Z,100553.38
2023-02-01T20:03:05.285Z,100555.53
2023-02-01T20:05:32.208Z,100550.91
2023-02-01T20:07:58.832Z,100556.09
2023-02-01T20:10:25.532Z,100558.84
2023-02-01T20:12:52.239Z,100555.09
2023-02-01T20:15:18.997Z,100556.91
2023-02-01T20:17:45.689Z,100564.72
2023-02-01T20:20:12.415Z,100559.50
2023-02-01T20:22:39.130Z,100571.19
2023-02-01T20:25:06.466Z,100562.25
2023-02-01T20:27:33.971Z,100557.84
2023-02-01T20:30:00.676Z,100562.16
2023-02-01T20:32:27.640Z,100561.44
2023-02-01T20:34:54.633Z,100566.69
2023-02-01T20:37:21.662Z,100569.31
2023-02-01T20:39:48.504Z,100559.59
2023-02-01T20:42:15.209Z,100581.00
2023-02-01T20:44:41.918Z,100579.06
2023-02-01T20:47:08.664Z,100570.38
2023-02-01T20:49:35.602Z,100567.44
2023-02-01T20:52:02.423Z,100560.38
2023-02-01T20:54:29.069Z,100567.69
2023-02-01T20:56:55.775Z,100566.25
2023-02-01T20:59:22.428Z,100565.25
2023-02-01T21:01:53.414Z,100538.06
2023-02-01T21:04:27.516Z,100546.75
2023-02-01T21:06:57.869Z,100550.41
2023-02-01T21:09:25.012Z,100564.44
2023-02-01T21:11:52.104Z,100556.47
2023-02-01T21:14:20.352Z,100549.72
2023-02-01T21:16:47.933Z,100549.44
2023-02-01T21:19:14.629Z,100559.09
2023-02-01T21:21:42.401Z,100562.75
2023-02-01T21:24:09.189Z,100562.78
2023-02-01T21:26:41.884Z,100559.88
2023-02-01T21:29:10.822Z,100560.88
2023-02-01T21:31:38.240Z,100562.78
2023-02-01T21:34:05.331Z,100568.72
2023-02-01T21:36:36.182Z,100578.25
2023-02-01T21:39:05.490Z,100553.91
2023-02-01T21:41:52.384Z,100550.56
2023-02-01T21:44:19.389Z,100561.81
2023-02-01T21:46:46.213Z,100570.59
2023-02-01T21:49:13.237Z,100574.59
2023-02-01T21:51:40.199Z,100578.94
2023-02-01T21:54:09.083Z,100579.44
2023-02-01T21:56:36.896Z,100577.66
2023-02-01T21:59:03.890Z,100574.25
2023-02-01T22:01:30.659Z,100581.31
2023-02-01T22:03:57.334Z,100576.03
2023-02-01T22:06:33.528Z,100590.34
2023-02-01T22:09:00.352Z,100583.09
2023-02-01T22:11:27.969Z,100588.22
2023-02-01T22:13:54.826Z,100587.66
2023-02-01T22:16:22.066Z,100576.13
2023-02-01T22:18:50.020Z,100583.09
2023-02-01T22:21:20.921Z,100581.06
2023-02-01T22:23:53.196Z,100581.25
2023-02-01T22:26:20.705Z,100588.16
2023-02-01T22:28:47.888Z,100591.16
2023-02-01T22:31:14.563Z,100579.53
2023-02-01T22:33:41.392Z,100568.25
2023-02-01T22:36:08.477Z,100573.28
2023-02-01T22:38:35.984Z,100578.59
2023-02-01T22:41:05.148Z,100575.94
2023-02-01T22:43:32.752Z,100573.06
2023-02-01T22:46:12.197Z,100558.06
2023-02-01T22:48:40.448Z,100569.38
2023-02-01T22:51:08.027Z,100554.78
2023-02-01T22:53:34.728Z,100568.56
2023-02-01T22:56:06.032Z,100554.94
2023-02-01T22:58:36.010Z,100555.94
2023-02-01T23:01:13.599Z,100563.72
2023-02-01T23:03:40.547Z,100564.41
2023-02-01T23:06:08.423Z,100561.44
2023-02-01T23:08:35.720Z,100560.53
2023-02-01T23:11:05.836Z,100559.94
2023-02-01T23:13:33.752Z,100557.22
2023-02-01T23:16:07.690Z,100557.31
2023-02-01T23:18:34.439Z,100558.88
2023-02-01T23:21:15.318Z,100548.31
2023-02-01T23:23:46.749Z,100552.72
2023-02-01T23:26:13.485Z,100559.72
2023-02-01T23:28:40.154Z,100558.84
2023-02-01T23:31:08.633Z,100549.00
2023-02-01T23:33:36.289Z,100550.94
2023-02-01T23:36:06.297Z,100549.84
2023-02-01T23:38:33.554Z,100536.78
2023-02-01T23:41:06.762Z,100538.78
2023-02-01T23:43:52.449Z,100541.22
2023-02-01T23:46:19.174Z,100528.94
2023-02-01T23:48:47.047Z,100530.44
2023-02-01T23:51:14.414Z,100540.38
2023-02-01T23:53:42.177Z,100527.84
2023-02-01T23:56:23.945Z,100528.94
2023-02-01T23:58:52.060Z,100527.19
